sensor_id;sensor_type;location;lat;lon;timestamp;pressure;altitude;pressure_sealevel;temperature;humidity
15880;BME280;61999;51.514;14.614;2023-05-02T00:00:43;99720.19;;;8.38;46.87
15880;BME280;61999;51.514;14.614;2023-05-02T00:03:11;99714.22;;;8.47;46.89
15880;BME280;61999;51.514;14.614;2023-05-02T00:05:39;99710.72;;;8.82;45.67
15880;BME280;61999;51.514;14.614;2023-05-02T00:08:09;99707.34;;;9.25;43.53
15880;BME280;61999;51.514;14.614;2023-05-02T00:10:38;99711.84;;;9.34;43.77
15880;BME280;61999;51.514;14.614;2023-05-02T00:13:06;99705.16;;;9.41;43.16
15880;BME280;61999;51.514;14.614;2023-05-02T00:15:34;99713.50;;;9.57;42.62
15880;BME280;61999;51.514;14.614;2023-05-02T00:18:02;99706.53;;;9.68;42.12
15880;BME280;61999;51.514;14.614;2023-05-02T00:20:30;99707.72;;;9.75;41.61
15880;BME280;61999;51.514;14.614;2023-05-02T00:22:57;99718.44;;;8.72;48.56
15880;BME280;61999;51.514;14.614;2023-05-02T00:25:27;99716.94;;;8.81;46.57
15880;BME280;61999;51.514;14.614;2023-05-02T00:27:55;99707.84;;;9.07;46.55
15880;BME280;61999;51.514;14.614;2023-05-02T00:30:23;99713.66;;;8.66;48.83
15880;BME280;61999;51.514;14.614;2023-05-02T00:32:50;99711.38;;;8.61;48.86
15880;BME280;61999;51.514;14.614;2023-05-02T00:35:19;99720.97;;;9.07;47.89
15880;BME280;61999;51.514;14.614;2023-05-02T00:37:47;99717.88;;;8.80;49.30
15880;BME280;61999;51.514;14.614;2023-05-02T00:40:16;99720.41;;;7.75;52.06
15880;BME280;61999;51.514;14.614;2023-05-02T00:42:45;99724.69;;;6.39;57.66
15880;BME280;61999;51.514;14.614;2023-05-02T00:45:13;99717.75;;;6.12;59.58
15880;BME280;61999;51.514;14.614;2023-05-02T00:47:41;99719.88;;;5.80;61.85
15880;BME280;61999;51.514;14.614;2023-05-02T00:50:09;99723.19;;;6.09;60.37
15880;BME280;61999;51.514;14.614;2023-05-02T00:52:37;99722.03;;;6.01;61.77
15880;BME280;61999;51.514;14.614;2023-05-02T00:55:06;99720.47;;;6.11;60.96
15880;BME280;61999;51.514;14.614;2023-05-02T00:57:34;99731.78;;;6.11;60.51
15880;BME280;61999;51.514;14.614;2023-05-02T01:00:06;99729.88;;;6.01;61.84
15880;BME280;61999;51.514;14.614;2023-05-02T01:02:42;99737.50;;;6.43;59.47
15880;BME280;61999;51.514;14.614;2023-05-02T01:05:20;99734.28;;;7.41;55.62
15880;BME280;61999;51.514;14.614;2023-05-02T01:08:04;99723.16;;;7.00;56.98
15880;BME280;61999;51.514;14.614;2023-05-02T01:10:47;99732.47;;;7.17;56.51
15880;BME280;61999;51.514;14.614;2023-05-02T01:13:20;99730.19;;;7.37;55.45
15880;BME280;61999;51.514;14.614;2023-05-02T01:15:52;99728.09;;;6.92;56.82
15880;BME280;61999;51.514;14.614;2023-05-02T01:18:25;99737.66;;;6.15;58.92
15880;BME280;61999;51.514;14.614;2023-05-02T01:20:59;99739.03;;;5.81;60.49
15880;BME280;61999;51.514;14.614;2023-05-02T01:23:37;99739.19;;;6.05;59.65
15880;BME280;61999;51.514;14.614;2023-05-02T01:26:16;99740.09;;;5.49;62.10
15880;BME280;61999;51.514;14.614;2023-05-02T01:28:57;99744.44;;;6.96;56.16
15880;BME280;61999;51.514;14.614;2023-05-02T01:31:33;99746.31;;;6.42;57.51
15880;BME280;61999;51.514;14.614;2023-05-02T01:34:05;99750.50;;;6.58;57.87
15880;BME280;61999;51.514;14.614;2023-05-02T01:36:40;99744.84;;;6.64;56.81
15880;BME280;61999;51.514;14.614;2023-05-02T01:39:12;99740.44;;;6.52;57.29
15880;BME280;61999;51.514;14.614;2023-05-02T01:41:42;99741.88;;;7.32;54.48
15880;BME280;61999;51.514;14.614;2023-05-02T01:44:12;99738.78;;;7.75;52.38
15880;BME280;61999;51.514;14.614;2023-05-02T01:46:43;99735.78;;;7.93;52.28
15880;BME280;61999;51.514;14.614;2023-05-02T01:49:11;99739.38;;;8.27;50.58
15880;BME280;61999;51.514;14.614;2023-05-02T01:51:43;99746.13;;;8.07;51.25
15880;BME280;61999;51.514;14.614;2023-05-02T01:54:16;99740.81;;;7.35;53.10
15880;BME280;61999;51.514;14.614;2023-05-02T01:56:45;99738.00;;;8.10;51.07
15880;BME280;61999;51.514;14.614;2023-05-02T01:59:19;99734.44;;;7.63;52.97
15880;BME280;61999;51.514;14.614;2023-05-02T02:01:51;99736.09;;;8.12;51.12
15880;BME280;61999;51.514;14.614;2023-05-02T02:04:22;99738.91;;;8.33;49.94
15880;BME280;61999;51.514;14.614;2023-05-02T02:06:57;99743.38;;;7.85;51.94
15880;BME280;61999;51.514;14.614;2023-05-02T02:09:28;99742.31;;;7.63;52.23
15880;BME280;61999;51.514;14.614;2023-05-02T02:12:01;99743.38;;;7.85;52.06
15880;BME280;61999;51.514;14.614;2023-05-02T02:14:36;99748.03;;;7.68;52.41
15880;BME280;61999;51.514;14.614;2023-05-02T02:17:14;99757.38;;;7.48;52.77
15880;BME280;61999;51.514;14.614;2023-05-02T02:19:44;99747.03;;;7.58;51.99
15880;BME280;61999;51.514;14.614;2023-05-02T02:22:14;99757.44;;;7.10;53.06
15880;BME280;61999;51.514;14.614;2023-05-02T02:24:46;99751.59;;;6.81;54.08
15880;BME280;61999;51.514;14.614;2023-05-02T02:27:15;99748.47;;;7.62;52.15
15880;BME280;61999;51.514;14.614;2023-05-02T02:29:44;99747.72;;;7.97;51.22
15880;BME280;61999;51.514;14.614;2023-05-02T02:32:12;99749.94;;;7.66;51.69
15880;BME280;61999;51.514;14.614;2023-05-02T02:34:40;99749.88;;;7.92;50.99
15880;BME280;61999;51.514;14.614;2023-05-02T02:37:16;99749.88;;;8.27;49.26
15880;BME280;61999;51.514;14.614;2023-05-02T02:39:59;99755.28;;;8.01;50.00
15880;BME280;61999;51.514;14.614;2023-05-02T02:42:36;99754.75;;;8.20;49.30
15880;BME280;61999;51.514;14.614;2023-05-02T02:45:26;99763.22;;;7.89;50.93
15880;BME280;61999;51.514;14.614;2023-05-02T02:48:10;99775.16;;;7.56;51.31
15880;BME280;61999;51.514;14.614;2023-05-02T02:50:58;99772.50;;;6.55;55.39
15880;BME280;61999;51.514;14.614;2023-05-02T02:53:43;99781.81;;;6.59;54.56
15880;BME280;61999;51.514;14.614;2023-05-02T02:56:19;99790.72;;;5.77;57.96
15880;BME280;61999;51.514;14.614;2023-05-02T02:58:57;99793.47;;;5.88;58.50
15880;BME280;61999;51.514;14.614;2023-05-02T03:01:31;99788.50;;;6.11;57.36
15880;BME280;61999;51.514;14.614;2023-05-02T03:04:03;99793.06;;;5.94;58.08
15880;BME280;61999;51.514;14.614;2023-05-02T03:06:32;99790.00;;;5.32;60.16
15880;BME280;61999;51.514;14.614;2023-05-02T03:09:00;99794.25;;;5.62;59.57
15880;BME280;61999;51.514;14.614;2023-05-02T03:11:29;99797.59;;;5.78;60.02
15880;BME280;61999;51.514;14.614;2023-05-02T03:13:57;99803.41;;;6.63;56.51
15880;BME280;61999;51.514;14.614;2023-05-02T03:16:35;99799.78;;;7.29;53.31
15880;BME280;61999;51.514;14.614;2023-05-02T03:19:05;99804.50;;;6.33;56.83
15880;BME280;61999;51.514;14.614;2023-05-02T03:21:33;99809.75;;;6.99;55.33
15880;BME280;61999;51.514;14.614;2023-05-02T03:24:03;99811.50;;;6.73;55.75
15880;BME280;61999;51.514;14.614;2023-05-02T03:26:31;99809.00;;;7.22;54.35
15880;BME280;61999;51.514;14.614;2023-05-02T03:28:59;99814.13;;;7.37;53.61
15880;BME280;61999;51.514;14.614;2023-05-02T03:31:27;99815.06;;;7.36;53.22
15880;BME280;61999;51.514;14.614;2023-05-02T03:33:56;99811.50;;;6.60;55.32
15880;BME280;61999;51.514;14.614;2023-05-02T03:36:24;99825.78;;;6.81;55.32
15880;BME280;61999;51.514;14.614;2023-05-02T03:38:53;99823.19;;;7.07;54.64
15880;BME280;61999;51.514;14.614;2023-05-02T03:41:21;99831.56;;;6.47;56.59
15880;BME280;61999;51.514;14.614;2023-05-02T03:43:50;99830.22;;;6.14;58.28
15880;BME280;61999;51.514;14.614;2023-05-02T03:46:18;99840.09;;;5.82;59.69
15880;BME280;61999;51.514;14.614;2023-05-02T03:48:46;99840.38;;;6.46;57.61
15880;BME280;61999;51.514;14.614;2023-05-02T03:51:15;99843.94;;;7.10;55.34
15880;BME280;61999;51.514;14.614;2023-05-02T03:53:43;99845.72;;;7.35;54.21
15880;BME280;61999;51.514;14.614;2023-05-02T03:56:11;99852.47;;;6.74;55.58
15880;BME280;61999;51.514;14.614;2023-05-02T03:58:46;99855.09;;;6.07;58.92
15880;BME280;61999;51.514;14.614;2023-05-02T04:01:14;99854.00;;;5.82;59.82
15880;BME280;61999;51.514;14.614;2023-05-02T04:03:43;99855.59;;;5.27;62.29
15880;BME280;61999;51.514;14.614;2023-05-02T04:06:11;99856.47;;;4.69;65.11
15880;BME280;61999;51.514;14.614;2023-05-02T04:08:41;99857.38;;;5.13;64.13
15880;BME280;61999;51.514;14.614;2023-05-02T04:11:09;99866.94;;;4.83;64.92
15880;BME280;61999;51.514;14.614;2023-05-02T04:13:37;99867.09;;;5.53;62.24
15880;BME280;61999;51.514;14.614;2023-05-02T04:16:05;99866.16;;;5.12;63.74
15880;BME280;61999;51.514;14.614;2023-05-02T04:18:33;99866.16;;;5.12;64.48
15880;BME280;61999;51.514;14.614;2023-05-02T04:21:01;99879.16;;;4.83;65.87
15880;BME280;61999;51.514;14.614;2023-05-02T04:23:29;99870.56;;;4.51;66.80
15880;BME280;61999;51.514;14.614;2023-05-02T04:25:58;99879.66;;;4.59;67.11
15880;BME280;61999;51.514;14.614;2023-05-02T04:28:26;99877.63;;;5.09;65.92
15880;BME280;61999;51.514;14.614;2023-05-02T04:30:55;99875.25;;;4.90;65.37
15880;BME280;61999;51.514;14.614;2023-05-02T04:33:24;99880.66;;;4.87;66.80
15880;BME280;61999;51.514;14.614;2023-05-02T04:35:52;99883.22;;;5.03;64.76
15880;BME280;61999;51.514;14.614;2023-05-02T04:38:20;99884.09;;;5.61;63.55
15880;BME280;61999;51.514;14.614;2023-05-02T04:40:49;99889.91;;;5.94;62.01
15880;BME280;61999;51.514;14.614;2023-05-02T04:43:19;99894.44;;;5.62;62.18
15880;BME280;61999;51.514;14.614;2023-05-02T04:45:48;99899.91;;;6.29;60.30
15880;BME280;61999;51.514;14.614;2023-05-02T04:48:16;99899.94;;;6.15;60.83
15880;BME280;61999;51.514;14.614;2023-05-02T04:50:44;99910.94;;;6.34;60.15
15880;BME280;61999;51.514;14.614;2023-05-02T04:53:12;99906.31;;;6.38;59.98
15880;BME280;61999;51.514;14.614;2023-05-02T04:55:40;99909.28;;;5.33;63.39
15880;BME280;61999;51.514;14.614;2023-05-02T04:58:09;99925.25;;;4.84;66.45
15880;BME280;61999;51.514;14.614;2023-05-02T05:00:38;99923.91;;;5.66;64.15
15880;BME280;61999;51.514;14.614;2023-05-02T05:03:06;99933.16;;;5.13;65.22
15880;BME280;61999;51.514;14.614;2023-05-02T05:05:34;99933.13;;;4.98;66.07
15880;BME280;61999;51.514;14.614;2023-05-02T05:08:02;99934.53;;;5.48;65.05
15880;BME280;61999;51.514;14.614;2023-05-02T05:10:30;99948.88;;;4.51;68.78
15880;BME280;61999;51.514;14.614;2023-05-02T05:12:58;99937.91;;;4.44;69.21
15880;BME280;61999;51.514;14.614;2023-05-02T05:15:26;99952.59;;;4.62;68.73
15880;BME280;61999;51.514;14.614;2023-05-02T05:17:55;99957.44;;;4.05;72.23
15880;BME280;61999;51.514;14.614;2023-05-02T05:20:23;99951.88;;;4.75;69.64
15880;BME280;61999;51.514;14.614;2023-05-02T05:22:51;99966.44;;;4.47;70.56
15880;BME280;61999;51.514;14.614;2023-05-02T05:25:19;99962.75;;;4.51;70.57
15880;BME280;61999;51.514;14.614;2023-05-02T05:27:47;99962.50;;;4.72;70.00
15880;BME280;61999;51.514;14.614;2023-05-02T05:30:15;99972.44;;;4.17;71.42
15880;BME280;61999;51.514;14.614;2023-05-02T05:32:43;99966.63;;;4.12;73.13
15880;BME280;61999;51.514;14.614;2023-05-02T05:35:12;99969.59;;;5.30;68.88
15880;BME280;61999;51.514;14.614;2023-05-02T05:37:40;99977.03;;;5.22;66.81
15880;BME280;61999;51.514;14.614;2023-05-02T05:40:09;99969.59;;;5.30;67.71
15880;BME280;61999;51.514;14.614;2023-05-02T05:42:37;99975.47;;;6.07;63.69
15880;BME280;61999;51.514;14.614;2023-05-02T05:45:07;99979.25;;;5.14;66.32
15880;BME280;61999;51.514;14.614;2023-05-02T05:47:35;99980.66;;;5.49;66.14
15880;BME280;61999;51.514;14.614;2023-05-02T05:50:04;99985.00;;;5.79;65.18
15880;BME280;61999;51.514;14.614;2023-05-02T05:52:33;99981.84;;;5.88;64.15
15880;BME280;61999;51.514;14.614;2023-05-02T05:55:04;99990.44;;;5.90;63.75
15880;BME280;61999;51.514;14.614;2023-05-02T05:57:32;100002.19;;;6.26;62.70
15880;BME280;61999;51.514;14.614;2023-05-02T06:00:00;100007.91;;;5.75;62.28
15880;BME280;61999;51.514;14.614;2023-05-02T06:02:28;100014.22;;;5.57;62.31
15880;BME280;61999;51.514;14.614;2023-05-02T06:04:56;100006.59;;;5.68;63.18
15880;BME280;61999;51.514;14.614;2023-05-02T06:07:24;100013.72;;;5.95;60.41
15880;BME280;61999;51.514;14.614;2023-05-02T06:09:53;100013.59;;;6.11;60.24
15880;BME280;61999;51.514;14.614;2023-05-02T06:12:21;100023.34;;;5.94;60.56
15880;BME280;61999;51.514;14.614;2023-05-02T06:14:49;100018.75;;;5.98;59.14
15880;BME280;61999;51.514;14.614;2023-05-02T06:17:17;100027.63;;;6.10;58.09
15880;BME280;61999;51.514;14.614;2023-05-02T06:19:45;100036.06;;;5.26;60.64
15880;BME280;61999;51.514;14.614;2023-05-02T06:22:13;100029.25;;;6.54;58.54
15880;BME280;61999;51.514;14.614;2023-05-02T06:24:41;100041.47;;;6.40;57.06
15880;BME280;61999;51.514;14.614;2023-05-02T06:27:10;100048.50;;;6.81;56.71
15880;BME280;61999;51.514;14.614;2023-05-02T06:29:38;100044.03;;;6.83;55.44
15880;BME280;61999;51.514;14.614;2023-05-02T06:32:06;100051.31;;;7.45;54.55
15880;BME280;61999;51.514;14.614;2023-05-02T06:34:34;100053.72;;;7.88;52.67
15880;BME280;61999;51.514;14.614;2023-05-02T06:37:02;100066.00;;;7.88;53.43
15880;BME280;61999;51.514;14.614;2023-05-02T06:39:30;100070.09;;;7.39;52.86
15880;BME280;61999;51.514;14.614;2023-05-02T06:41:59;100059.41;;;6.47;53.38
15880;BME280;61999;51.514;14.614;2023-05-02T06:44:28;100070.66;;;6.34;54.01
15880;BME280;61999;51.514;14.614;2023-05-02T06:46:56;100067.41;;;7.14;54.93
15880;BME280;61999;51.514;14.614;2023-05-02T06:49:25;100073.63;;;7.65;53.01
15880;BME280;61999;51.514;14.614;2023-05-02T06:51:53;100079.56;;;8.07;51.74
15880;BME280;61999;51.514;14.614;2023-05-02T06:54:21;100077.66;;;7.96;47.92
15880;BME280;61999;51.514;14.614;2023-05-02T06:56:49;100085.34;;;7.87;51.21
15880;BME280;61999;51.514;14.614;2023-05-02T06:59:17;100093.44;;;8.35;49.76
15880;BME280;61999;51.514;14.614;2023-05-02T07:01:46;100099.03;;;8.67;48.53
15880;BME280;61999;51.514;14.614;2023-05-02T07:04:14;100087.22;;;8.98;47.11
15880;BME280;61999;51.514;14.614;2023-05-02T07:06:42;100103.25;;;8.57;46.98
15880;BME280;61999;51.514;14.614;2023-05-02T07:09:10;100095.84;;;9.00;46.76
15880;BME280;61999;51.514;14.614;2023-05-02T07:11:38;100120.06;;;8.80;46.47
15880;BME280;61999;51.514;14.614;2023-05-02T07:14:06;100114.63;;;8.57;47.79
15880;BME280;61999;51.514;14.614;2023-05-02T07:16:34;100120.84;;;7.65;49.24
15880;BME280;61999;51.514;14.614;2023-05-02T07:19:04;100127.78;;;7.66;47.80
15880;BME280;61999;51.514;14.614;2023-05-02T07:21:32;100132.72;;;8.23;48.04
15880;BME280;61999;51.514;14.614;2023-05-02T07:24:00;100131.44;;;8.42;47.08
15880;BME280;61999;51.514;14.614;2023-05-02T07:26:29;100132.59;;;7.99;47.34
15880;BME280;61999;51.514;14.614;2023-05-02T07:28:57;100128.91;;;8.66;46.61
15880;BME280;61999;51.514;14.614;2023-05-02T07:31:24;100135.22;;;8.89;46.34
15880;BME280;61999;51.514;14.614;2023-05-02T07:33:52;100133.66;;;9.58;45.44
15880;BME280;61999;51.514;14.614;2023-05-02T07:36:22;100144.31;;;9.81;43.82
15880;BME280;61999;51.514;14.614;2023-05-02T07:38:50;100139.66;;;9.36;44.24
15880;BME280;61999;51.514;14.614;2023-05-02T07:41:19;100148.03;;;8.42;43.66
15880;BME280;61999;51.514;14.614;2023-05-02T07:43:47;100148.59;;;7.69;45.11
15880;BME280;61999;51.514;14.614;2023-05-02T07:46:15;100154.09;;;8.94;44.63
15880;BME280;61999;51.514;14.614;2023-05-02T07:48:44;100162.41;;;9.01;44.38
15880;BME280;61999;51.514;14.614;2023-05-02T07:51:12;100169.03;;;9.06;43.20
15880;BME280;61999;51.514;14.614;2023-05-02T07:53:42;100179.56;;;9.06;42.40
15880;BME280;61999;51.514;14.614;2023-05-02T07:56:10;100178.19;;;9.38;41.21
15880;BME280;61999;51.514;14.614;2023-05-02T07:58:39;100188.84;;;8.35;42.41
15880;BME280;61999;51.514;14.614;2023-05-02T08:01:07;100195.16;;;8.58;42.78
15880;BME280;61999;51.514;14.614;2023-05-02T08:03:35;100197.03;;;8.69;42.79
15880;BME280;61999;51.514;14.614;2023-05-02T08:06:03;100198.72;;;8.96;44.31
15880;BME280;61999;51.514;14.614;2023-05-02T08:08:31;100198.19;;;9.40;43.14
15880;BME280;61999;51.514;14.614;2023-05-02T08:11:00;100208.25;;;9.46;42.88
15880;BME280;61999;51.514;14.614;2023-05-02T08:13:28;100201.06;;;9.48;43.11
15880;BME280;61999;51.514;14.614;2023-05-02T08:15:56;100215.50;;;10.03;43.24
15880;BME280;61999;51.514;14.614;2023-05-02T08:18:26;100217.94;;;9.94;42.39
15880;BME280;61999;51.514;14.614;2023-05-02T08:20:55;100216.91;;;10.32;40.65
15880;BME280;61999;51.514;14.614;2023-05-02T08:23:24;100217.34;;;10.25;41.58
15880;BME280;61999;51.514;14.614;2023-05-02T08:25:52;100223.09;;;10.55;41.43
15880;BME280;61999;51.514;14.614;2023-05-02T08:28:22;100230.19;;;9.95;43.66
15880;BME280;61999;51.514;14.614;2023-05-02T08:30:50;100232.53;;;10.22;42.46
15880;BME280;61999;51.514;14.614;2023-05-02T08:33:17;100238.09;;;9.71;42.72
15880;BME280;61999;51.514;14.614;2023-05-02T08:35:45;100236.66;;;10.26;41.89
15880;BME280;61999;51.514;14.614;2023-05-02T08:38:13;100237.00;;;11.02;40.93
15880;BME280;61999;51.514;14.614;2023-05-02T08:40:41;100236.66;;;10.95;41.22
15880;BME280;61999;51.514;14.614;2023-05-02T08:43:11;100244.19;;;10.88;41.69
15880;BME280;61999;51.514;14.614;2023-05-02T08:45:43;100244.41;;;10.28;40.63
15880;BME280;61999;51.514;14.614;2023-05-02T08:48:12;100250.41;;;10.65;41.13
15880;BME280;61999;51.514;14.614;2023-05-02T08:50:43;100252.47;;;10.95;39.33
15880;BME280;61999;51.514;14.614;2023-05-02T08:53:16;100256.00;;;10.49;41.92
15880;BME280;61999;51.514;14.614;2023-05-02T08:55:45;100258.34;;;9.45;42.08
15880;BME280;61999;51.514;14.614;2023-05-02T08:58:14;100266.84;;;10.33;41.94
15880;BME280;61999;51.514;14.614;2023-05-02T09:00:47;100263.00;;;10.37;40.77
15880;BME280;61999;51.514;14.614;2023-05-02T09:03:28;100270.97;;;10.13;40.88
15880;BME280;61999;51.514;14.614;2023-05-02T09:06:05;100271.75;;;10.27;40.59
15880;BME280;61999;51.514;14.614;2023-05-02T09:08:34;100274.84;;;9.96;39.80
15880;BME280;61999;51.514;14.614;2023-05-02T09:11:03;100283.88;;;10.52;40.59
15880;BME280;61999;51.514;14.614;2023-05-02T09:13:35;100283.03;;;10.05;41.14
15880;BME280;61999;51.514;14.614;2023-05-02T09:16:07;100287.66;;;10.25;41.55
15880;BME280;61999;51.514;14.614;2023-05-02T09:18:37;100293.72;;;10.14;42.46
15880;BME280;61999;51.514;14.614;2023-05-02T09:21:08;100296.78;;;10.67;41.53
15880;BME280;61999;51.514;14.614;2023-05-02T09:23:39;100304.59;;;10.69;40.69
15880;BME280;61999;51.514;14.614;2023-05-02T09:26:16;100303.69;;;8.99;44.28
15880;BME280;61999;51.514;14.614;2023-05-02T09:28:46;100307.66;;;9.30;43.48
15880;BME280;61999;51.514;14.614;2023-05-02T09:31:18;100311.59;;;9.61;43.54
15880;BME280;61999;51.514;14.614;2023-05-02T09:34:07;100314.81;;;10.50;41.55
15880;BME280;61999;51.514;14.614;2023-05-02T09:36:39;100310.09;;;10.77;41.43
15880;BME280;61999;51.514;14.614;2023-05-02T09:39:09;100304.63;;;11.03;40.00
15880;BME280;61999;51.514;14.614;2023-05-02T09:41:39;100326.47;;;11.16;40.61
15880;BME280;61999;51.514;14.614;2023-05-02T09:44:10;100323.97;;;10.09;41.60
15880;BME280;61999;51.514;14.614;2023-05-02T09:46:44;100328.75;;;10.03;44.02
15880;BME280;61999;51.514;14.614;2023-05-02T09:49:13;100334.19;;;9.01;44.24
15880;BME280;61999;51.514;14.614;2023-05-02T09:51:45;100341.16;;;8.62;46.77
15880;BME280;61999;51.514;14.614;2023-05-02T09:54:13;100328.19;;;10.35;43.57
15880;BME280;61999;51.514;14.614;2023-05-02T09:56:52;100332.69;;;10.92;41.67
15880;BME280;61999;51.514;14.614;2023-05-02T09:59:23;100334.28;;;11.63;39.64
15880;BME280;61999;51.514;14.614;2023-05-02T10:01:56;100331.84;;;10.21;42.27
15880;BME280;61999;51.514;14.614;2023-05-02T10:04:26;100338.78;;;9.49;43.89
15880;BME280;61999;51.514;14.614;2023-05-02T10:06:56;100340.53;;;10.11;44.05
15880;BME280;61999;51.514;14.614;2023-05-02T10:09:25;100337.59;;;10.51;42.15
15880;BME280;61999;51.514;14.614;2023-05-02T10:11:55;100337.69;;;10.73;42.14
15880;BME280;61999;51.514;14.614;2023-05-02T10:14:25;100345.16;;;10.90;42.22
15880;BME280;61999;51.514;14.614;2023-05-02T10:17:00;100346.53;;;9.89;44.23
15880;BME280;61999;51.514;14.614;2023-05-02T10:19:32;100349.25;;;11.06;42.96
15880;BME280;61999;51.514;14.614;2023-05-02T10:22:05;100359.13;;;9.96;43.54
15880;BME280;61999;51.514;14.614;2023-05-02T10:24:34;100362.22;;;10.14;44.27
15880;BME280;61999;51.514;14.614;2023-05-02T10:27:03;100361.00;;;9.94;43.16
15880;BME280;61999;51.514;14.614;2023-05-02T10:29:33;100366.16;;;9.33;44.17
15880;BME280;61999;51.514;14.614;2023-05-02T10:32:05;100354.66;;;10.58;43.69
15880;BME280;61999;51.514;14.614;2023-05-02T10:34:35;100359.47;;;10.64;41.65
15880;BME280;61999;51.514;14.614;2023-05-02T10:37:03;100361.97;;;10.65;41.46
15880;BME280;61999;51.514;14.614;2023-05-02T10:39:32;100356.72;;;11.34;40.37
15880;BME280;61999;51.514;14.614;2023-05-02T10:42:02;100363.00;;;11.56;41.12
15880;BME280;61999;51.514;14.614;2023-05-02T10:44:36;100356.28;;;11.52;40.88
15880;BME280;61999;51.514;14.614;2023-05-02T10:47:21;100361.94;;;12.13;38.93
15880;BME280;61999;51.514;14.614;2023-05-02T10:49:52;100360.88;;;12.48;38.97
15880;BME280;61999;51.514;14.614;2023-05-02T10:52:31;100356.91;;;12.10;39.03
15880;BME280;61999;51.514;14.614;2023-05-02T10:55:17;100366.00;;;12.82;39.72
15880;BME280;61999;51.514;14.614;2023-05-02T10:58:20;100363.97;;;12.53;38.09
15880;BME280;61999;51.514;14.614;2023-05-02T11:00:49;100363.44;;;13.43;38.40
15880;BME280;61999;51.514;14.614;2023-05-02T11:03:55;100355.66;;;13.51;37.28
15880;BME280;61999;51.514;14.614;2023-05-02T11:06:25;100364.22;;;13.65;37.29
15880;BME280;61999;51.514;14.614;2023-05-02T11:09:31;100364.50;;;14.21;35.33
15880;BME280;61999;51.514;14.614;2023-05-02T11:12:03;100365.78;;;12.20;38.93
15880;BME280;61999;51.514;14.614;2023-05-02T11:14:45;100367.03;;;11.82;39.42
15880;BME280;61999;51.514;14.614;2023-05-02T11:17:16;100365.44;;;11.01;43.02
15880;BME280;61999;51.514;14.614;2023-05-02T11:20:28;100367.97;;;12.04;39.53
15880;BME280;61999;51.514;14.614;2023-05-02T11:23:19;100373.03;;;11.96;41.61
15880;BME280;61999;51.514;14.614;2023-05-02T11:25:54;100371.56;;;13.51;37.67
15880;BME280;61999;51.514;14.614;2023-05-02T11:28:43;100375.94;;;11.59;40.76
15880;BME280;61999;51.514;14.614;2023-05-02T11:31:52;100375.78;;;14.23;36.34
15880;BME280;61999;51.514;14.614;2023-05-02T11:34:21;100389.69;;;13.56;35.79
15880;BME280;61999;51.514;14.614;2023-05-02T11:36:50;100395.31;;;11.13;41.62
15880;BME280;61999;51.514;14.614;2023-05-02T11:39:19;100380.75;;;11.54;41.49
15880;BME280;61999;51.514;14.614;2023-05-02T11:41:48;100380.91;;;12.30;40.96
15880;BME280;61999;51.514;14.614;2023-05-02T11:44:16;100388.22;;;14.23;37.96
15880;BME280;61999;51.514;14.614;2023-05-02T11:46:44;100386.78;;;13.99;35.91
15880;BME280;61999;51.514;14.614;2023-05-02T11:49:13;100390.72;;;13.95;37.17
15880;BME280;61999;51.514;14.614;2023-05-02T11:51:41;100393.91;;;13.99;36.96
15880;BME280;61999;51.514;14.614;2023-05-02T11:54:17;100396.28;;;13.31;38.11
15880;BME280;61999;51.514;14.614;2023-05-02T11:56:46;100407.13;;;13.79;36.68
15880;BME280;61999;51.514;14.614;2023-05-02T11:59:14;100399.31;;;13.88;36.88
15880;BME280;61999;51.514;14.614;2023-05-02T12:01:47;100387.88;;;13.56;37.02
15880;BME280;61999;51.514;14.614;2023-05-02T12:04:15;100393.91;;;13.58;37.53
15880;BME280;61999;51.514;14.614;2023-05-02T12:06:54;100398.75;;;14.54;35.49
15880;BME280;61999;51.514;14.614;2023-05-02T12:09:23;100402.41;;;14.53;36.37
15880;BME280;61999;51.514;14.614;2023-05-02T12:11:52;100398.19;;;15.83;34.25
15880;BME280;61999;51.514;14.614;2023-05-02T12:14:27;100401.09;;;15.90;33.49
15880;BME280;61999;51.514;14.614;2023-05-02T12:16:58;100400.53;;;15.02;33.89
15880;BME280;61999;51.514;14.614;2023-05-02T12:19:26;100411.47;;;14.60;35.11
15880;BME280;61999;51.514;14.614;2023-05-02T12:21:54;100421.22;;;14.69;35.24
15880;BME280;61999;51.514;14.614;2023-05-02T12:24:24;100422.63;;;14.54;36.00
15880;BME280;61999;51.514;14.614;2023-05-02T12:27:11;100419.34;;;14.11;36.38
15880;BME280;61999;51.514;14.614;2023-05-02T12:29:42;100422.16;;;12.53;39.30
15880;BME280;61999;51.514;14.614;2023-05-02T12:32:10;100429.25;;;12.09;40.96
15880;BME280;61999;51.514;14.614;2023-05-02T12:34:39;100427.81;;;11.60;39.91
15880;BME280;61999;51.514;14.614;2023-05-02T12:37:08;100435.47;;;11.63;40.66
15880;BME280;61999;51.514;14.614;2023-05-02T12:39:41;100444.91;;;12.77;39.27
15880;BME280;61999;51.514;14.614;2023-05-02T12:42:10;100439.19;;;11.94;40.47
15880;BME280;61999;51.514;14.614;2023-05-02T12:44:40;100432.56;;;12.34;39.27
15880;BME280;61999;51.514;14.614;2023-05-02T12:47:10;100430.44;;;12.05;40.23
15880;BME280;61999;51.514;14.614;2023-05-02T12:49:49;100432.84;;;12.19;40.19
15880;BME280;61999;51.514;14.614;2023-05-02T12:52:17;100435.47;;;12.19;40.07
15880;BME280;61999;51.514;14.614;2023-05-02T12:54:47;100438.59;;;10.99;42.37
15880;BME280;61999;51.514;14.614;2023-05-02T12:57:23;100439.44;;;12.25;41.00
15880;BME280;61999;51.514;14.614;2023-05-02T12:59:52;100434.66;;;12.83;39.50
15880;BME280;61999;51.514;14.614;2023-05-02T13:02:20;100429.44;;;12.06;39.56
15880;BME280;61999;51.514;14.614;2023-05-02T13:04:49;100437.75;;;12.24;39.82
15880;BME280;61999;51.514;14.614;2023-05-02T13:07:17;100443.72;;;12.15;39.95
15880;BME280;61999;51.514;14.614;2023-05-02T13:09:46;100442.31;;;12.65;40.07